createdAt,value
2023-02-28T00:01:14.500Z,20.50
2023-02-28T00:03:42.916Z,19.90
2023-02-28T00:06:11.098Z,28.00
2023-02-28T00:08:39.832Z,30.60
2023-02-28T00:11:10.086Z,32.10
2023-02-28T00:13:40.625Z,26.10
2023-02-28T00:16:10.867Z,20.40
2023-02-28T00:18:38.892Z,19.40
2023-02-28T00:21:07.941Z,22.20
2023-02-28T00:23:36.598Z,20.10
2023-02-28T00:26:05.136Z,23.80
2023-02-28T00:28:33.682Z,23.50
2023-02-28T00:31:01.808Z,22.20
2023-02-28T00:33:30.641Z,21.60
2023-02-28T00:36:08.465Z,22.60
2023-02-28T00:38:38.212Z,19.40
2023-02-28T00:41:07.504Z,21.50
2023-02-28T00:43:37.365Z,20.20
2023-02-28T00:46:06.946Z,21.00
2023-02-28T00:48:35.293Z,21.20
2023-02-28T00:51:04.225Z,19.40
2023-02-28T00:53:33.254Z,19.70
2023-02-28T00:56:01.326Z,19.50
2023-02-28T00:58:29.641Z,21.00
2023-02-28T01:00:57.877Z,21.00
2023-02-28T01:03:25.840Z,20.90
2023-02-28T01:05:53.919Z,20.00
2023-02-28T01:08:22.014Z,20.10
2023-02-28T01:10:50.304Z,16.80
2023-02-28T01:13:18.741Z,17.90
2023-02-28T01:15:50.127Z,18.00
2023-02-28T01:18:18.157Z,17.50
2023-02-28T01:20:46.638Z,17.80
2023-02-28T01:23:14.696Z,17.00
2023-02-28T01:25:42.875Z,17.40
2023-02-28T01:28:10.894Z,20.40
2023-02-28T01:30:38.918Z,18.70
2023-02-28T01:33:08.034Z,18.60
2023-02-28T01:35:36.849Z,18.70
2023-02-28T01:38:20.531Z,18.90
2023-02-28T01:40:49.380Z,17.10
2023-02-28T01:43:24.765Z,17.30
2023-02-28T01:45:54.489Z,17.90
2023-02-28T01:48:27.092Z,18.50
2023-02-28T01:51:00.264Z,16.60
2023-02-28T01:53:33.114Z,16.90
2023-02-28T01:56:04.640Z,19.70
2023-02-28T01:58:33.069Z,17.90
2023-02-28T02:01:03.298Z,17.40
2023-02-28T02:03:31.985Z,18.10
2023-02-28T02:06:00.879Z,16.70
2023-02-28T02:08:30.677Z,18.80
2023-02-28T02:11:00.891Z,18.60
2023-02-28T02:13:43.090Z,19.50
2023-02-28T02:16:28.360Z,19.60
2023-02-28T02:19:03.555Z,19.40
2023-02-28T02:22:03.709Z,21.10
2023-02-28T02:25:00.177Z,19.50
2023-02-28T02:27:46.069Z,17.30
2023-02-28T02:30:33.789Z,19.30
2023-02-28T02:33:16.636Z,17.30
2023-02-28T02:35:52.092Z,17.90
2023-02-28T02:38:27.416Z,18.80
2023-02-28T02:41:04.060Z,17.40
2023-02-28T02:43:39.758Z,18.10
2023-02-28T02:46:15.600Z,17.30
2023-02-28T02:48:47.767Z,17.00
2023-02-28T02:51:19.762Z,16.90
2023-02-28T02:53:51.397Z,17.70
2023-02-28T02:56:23.637Z,16.90
2023-02-28T02:58:54.392Z,16.80
2023-02-28T03:01:28.428Z,18.40
2023-02-28T03:04:00.264Z,18.30
2023-02-28T03:06:28.500Z,17.30
2023-02-28T03:08:56.486Z,17.50
2023-02-28T03:11:24.972Z,18.50
2023-02-28T03:14:16.270Z,16.30
2023-02-28T03:17:12.719Z,17.50
2023-02-28T03:19:52.609Z,17.00
2023-02-28T03:22:40.428Z,18.30
2023-02-28T03:25:15.054Z,17.30
2023-02-28T03:27:55.943Z,17.90
2023-02-28T03:30:30.380Z,18.20
2023-02-28T03:33:05.011Z,20.10
2023-02-28T03:35:37.880Z,17.90
2023-02-28T03:38:14.378Z,18.00
2023-02-28T03:40:47.227Z,17.50
2023-02-28T03:43:21.998Z,17.80
2023-02-28T03:45:53.365Z,18.30
2023-02-28T03:48:26.621Z,17.20
2023-02-28T03:50:58.867Z,18.30
2023-02-28T03:53:31.666Z,19.40
2023-02-28T03:56:04.764Z,17.50
2023-02-28T03:58:38.568Z,17.40
2023-02-28T04:01:13.844Z,18.70
2023-02-28T04:06:17.160Z,18.50
2023-02-28T04:08:45.166Z,19.70
2023-02-28T04:11:21.745Z,18.20
2023-02-28T04:13:49.737Z,18.10
2023-02-28T04:16:33.546Z,18.50
2023-02-28T04:19:03.200Z,17.50
2023-02-28T04:21:33.250Z,20.40
2023-02-28T04:24:03.033Z,19.50
2023-02-28T04:26:31.968Z,18.40
2023-02-28T04:29:00.929Z,18.10
2023-02-28T04:31:29.372Z,19.20
2023-02-28T04:33:58.314Z,18.40
2023-02-28T04:36:26.981Z,18.00
2023-02-28T04:38:55.365Z,18.90
2023-02-28T04:41:24.254Z,18.50
2023-02-28T04:43:53.041Z,17.50
2023-02-28T04:46:21.510Z,18.90
2023-02-28T04:48:49.930Z,19.00
2023-02-28T04:51:20.000Z,19.80
2023-02-28T04:53:48.742Z,18.80
2023-02-28T04:56:18.385Z,19.30
2023-02-28T04:58:46.512Z,20.70
2023-02-28T05:01:21.173Z,21.20
2023-02-28T05:03:50.291Z,21.60
2023-02-28T05:06:19.409Z,20.50
2023-02-28T05:08:47.768Z,19.90
2023-02-28T05:11:19.123Z,18.60
2023-02-28T05:13:49.681Z,19.50
2023-02-28T05:16:19.107Z,21.20
2023-02-28T05:18:47.722Z,21.70
2023-02-28T05:21:26.146Z,20.10
2023-02-28T05:23:55.489Z,20.70
2023-02-28T05:26:26.929Z,21.50
2023-02-28T05:28:56.047Z,23.50
2023-02-28T05:31:24.938Z,22.80
2023-02-28T05:33:53.505Z,20.30
2023-02-28T05:36:22.214Z,20.80
2023-02-28T05:38:51.061Z,21.30
2023-02-28T05:41:20.617Z,21.90
2023-02-28T05:43:49.010Z,24.50
2023-02-28T05:46:17.222Z,24.90
2023-02-28T05:48:48.280Z,22.80
2023-02-28T05:51:17.196Z,22.00
2023-02-28T05:53:45.797Z,23.60
2023-02-28T05:56:14.013Z,21.30
2023-02-28T05:58:54.560Z,23.30
2023-02-28T06:01:33.801Z,22.50
2023-02-28T06:04:05.662Z,22.00
2023-02-28T06:06:37.113Z,21.80
2023-02-28T06:09:05.751Z,22.20
2023-02-28T06:11:34.245Z,22.90
2023-02-28T06:14:02.995Z,23.30
2023-02-28T06:16:33.860Z,21.80
2023-02-28T06:19:03.771Z,22.50
2023-02-28T06:21:32.525Z,23.20
2023-02-28T06:24:01.449Z,23.50
2023-02-28T06:26:30.052Z,21.70
2023-02-28T06:28:58.367Z,22.40
2023-02-28T06:31:26.463Z,21.50
2023-02-28T06:33:54.724Z,20.10
2023-02-28T06:36:22.878Z,21.50
2023-02-28T06:38:54.947Z,21.60
2023-02-28T06:41:25.271Z,20.50
2023-02-28T06:43:55.123Z,18.70
2023-02-28T06:46:29.831Z,18.80
2023-02-28T06:48:58.026Z,18.00
2023-02-28T06:51:27.603Z,13.80
2023-02-28T06:53:55.779Z,14.90
2023-02-28T06:56:23.872Z,13.70
2023-02-28T06:58:53.132Z,13.40
2023-02-28T07:01:23.327Z,15.60
2023-02-28T07:03:53.162Z,11.40
2023-02-28T07:06:22.971Z,11.40
2023-02-28T07:08:52.333Z,11.30
2023-02-28T07:11:22.817Z,11.20
2023-02-28T07:13:51.427Z,11.50
2023-02-28T07:16:20.190Z,10.30
2023-02-28T07:18:49.694Z,11.10
2023-02-28T07:21:17.791Z,10.60
2023-02-28T07:23:46.200Z,9.00
2023-02-28T07:26:16.060Z,9.60
2023-02-28T07:28:45.515Z,9.50
2023-02-28T07:31:14.927Z,7.30
2023-02-28T07:33:43.678Z,7.40
2023-02-28T07:36:15.551Z,7.20
2023-02-28T07:38:46.374Z,5.50
2023-02-28T07:41:16.847Z,5.90
2023-02-28T07:43:45.134Z,5.00
2023-02-28T07:46:15.922Z,5.40
2023-02-28T07:48:45.047Z,6.20
2023-02-28T07:51:13.213Z,5.40
2023-02-28T07:53:42.623Z,6.30
2023-02-28T07:56:11.317Z,5.20
2023-02-28T07:58:39.454Z,5.30
2023-02-28T08:01:09.593Z,5.20
2023-02-28T08:03:38.178Z,5.20
2023-02-28T08:06:09.085Z,5.00
2023-02-28T08:08:37.285Z,4.80
2023-02-28T08:11:05.687Z,5.80
2023-02-28T08:13:34.540Z,5.50
2023-02-28T08:16:03.623Z,5.80
2023-02-28T08:18:34.597Z,5.70
2023-02-28T08:21:08.635Z,6.20
2023-02-28T08:23:36.957Z,6.10
2023-02-28T08:26:05.498Z,5.70
2023-02-28T08:28:33.647Z,6.60
2023-02-28T08:31:01.777Z,6.00
2023-02-28T08:33:30.187Z,5.70
2023-02-28T08:35:58.443Z,6.60
2023-02-28T08:38:26.519Z,6.30
2023-02-28T08:40:59.764Z,7.30
2023-02-28T08:43:28.024Z,6.30
2023-02-28T08:45:58.649Z,6.60
2023-02-28T08:48:27.809Z,6.50
2023-02-28T08:51:08.638Z,6.10
2023-02-28T08:53:37.767Z,6.50
2023-02-28T08:56:08.883Z,6.60
2023-02-28T08:58:37.191Z,6.70
2023-02-28T09:01:11.427Z,6.10
2023-02-28T09:03:41.277Z,6.50
2023-02-28T09:06:11.083Z,6.40
2023-02-28T09:08:39.678Z,6.40
2023-02-28T09:11:23.168Z,6.00
2023-02-28T09:13:56.329Z,6.50
2023-02-28T09:16:24.503Z,6.50
2023-02-28T09:18:52.590Z,6.40
2023-02-28T09:21:21.106Z,6.70
2023-02-28T09:23:50.896Z,6.30
2023-02-28T09:26:21.210Z,6.20
2023-02-28T09:28:49.395Z,6.50
2023-02-28T09:31:21.521Z,7.00
2023-02-28T09:33:49.783Z,6.60
2023-02-28T09:36:18.474Z,6.40
2023-02-28T09:38:48.699Z,6.80
2023-02-28T09:41:21.950Z,7.20
2023-02-28T09:43:53.658Z,7.10
2023-02-28T09:46:32.108Z,7.30
2023-02-28T09:49:03.395Z,7.50
2023-02-28T09:51:49.250Z,7.90
2023-02-28T09:54:19.678Z,7.40
2023-02-28T09:56:53.076Z,6.90
2023-02-28T09:59:33.381Z,7.20
2023-02-28T10:02:14.184Z,7.50
2023-02-28T10:04:55.284Z,7.00
2023-02-28T10:07:48.319Z,7.30
2023-02-28T10:10:23.797Z,7.20
2023-02-28T10:12:56.265Z,7.60
2023-02-28T10:15:28.780Z,7.30
2023-02-28T10:18:08.921Z,6.70
2023-02-28T10:20:40.849Z,7.30
2023-02-28T10:23:16.988Z,7.20
2023-02-28T10:25:48.518Z,6.80
2023-02-28T10:28:18.673Z,7.40
2023-02-28T10:30:50.546Z,7.40
2023-02-28T10:33:27.448Z,8.50
2023-02-28T10:35:55.924Z,8.20
2023-02-28T10:38:29.724Z,7.70
2023-02-28T10:41:07.604Z,8.20
2023-02-28T10:43:36.793Z,7.60
2023-02-28T10:46:14.434Z,7.60
2023-02-28T10:48:50.347Z,8.10
2023-02-28T10:51:23.138Z,8.40
2023-02-28T10:54:01.013Z,7.70
2023-02-28T10:56:33.789Z,9.00
2023-02-28T10:59:04.361Z,7.10
2023-02-28T11:01:41.263Z,7.90
2023-02-28T11:04:32.788Z,8.00
2023-02-28T11:07:03.711Z,8.10
2023-02-28T11:09:35.633Z,8.00
2023-02-28T11:12:05.466Z,9.00
2023-02-28T11:14:40.821Z,9.20
2023-02-28T11:17:20.397Z,8.90
2023-02-28T11:19:52.197Z,8.00
2023-02-28T11:22:23.809Z,7.80
2023-02-28T11:24:55.353Z,9.80
2023-02-28T11:27:47.486Z,9.50
2023-02-28T11:30:34.879Z,9.30
2023-02-28T11:33:22.364Z,9.10
2023-02-28T11:35:53.295Z,9.60
2023-02-28T11:38:21.394Z,8.60
2023-02-28T11:41:01.381Z,8.90
2023-02-28T11:43:46.877Z,10.10
2023-02-28T11:49:00.196Z,10.00
2023-02-28T11:51:34.320Z,8.90
2023-02-28T11:54:24.682Z,9.30
2023-02-28T11:56:57.958Z,9.20
2023-02-28T11:59:52.817Z,9.40
2023-02-28T12:02:29.069Z,9.20
2023-02-28T12:05:15.456Z,9.40
2023-02-28T12:07:51.757Z,9.70
2023-02-28T12:10:25.007Z,9.40
2023-02-28T12:13:08.760Z,9.30
2023-02-28T12:16:09.927Z,9.60
2023-02-28T12:18:53.552Z,10.50
2023-02-28T12:21:32.261Z,10.50
2023-02-28T12:24:19.811Z,10.10
2023-02-28T12:26:50.546Z,10.60
2023-02-28T12:29:24.267Z,9.90
2023-02-28T12:31:56.565Z,11.00
2023-02-28T12:34:29.576Z,10.30
2023-02-28T12:37:07.746Z,10.90
2023-02-28T12:39:49.839Z,11.20
2023-02-28T12:42:24.898Z,10.00
2023-02-28T12:44:58.961Z,10.10
2023-02-28T12:47:27.161Z,9.60
2023-02-28T12:50:00.917Z,10.00
2023-02-28T12:52:41.489Z,10.40
2023-02-28T12:55:16.100Z,10.60
2023-02-28T12:57:51.320Z,10.40
2023-02-28T13:00:23.983Z,8.60
2023-02-28T13:03:22.429Z,10.40
2023-02-28T13:06:25.074Z,9.00
2023-02-28T13:09:09.909Z,10.10
2023-02-28T13:11:43.206Z,9.10
2023-02-28T13:14:30.882Z,10.00
2023-02-28T13:17:03.151Z,8.70
2023-02-28T13:19:33.122Z,9.40
2023-02-28T13:22:01.840Z,9.40
2023-02-28T13:24:49.071Z,8.80
2023-02-28T13:27:35.627Z,8.70
2023-02-28T13:30:41.640Z,9.20
2023-02-28T13:33:32.833Z,7.80
2023-02-28T13:36:24.007Z,10.10
2023-02-28T13:38:53.808Z,10.40
2023-02-28T13:41:44.119Z,10.70
2023-02-28T13:44:13.729Z,9.60
2023-02-28T13:47:26.556Z,10.10
2023-02-28T13:49:54.623Z,8.70
2023-02-28T13:52:24.876Z,7.90
2023-02-28T13:55:05.409Z,9.70
2023-02-28T13:57:50.236Z,8.40
2023-02-28T14:00:29.539Z,8.40
2023-02-28T14:03:13.197Z,7.60
2023-02-28T14:05:42.065Z,8.10
2023-02-28T14:08:17.330Z,9.00
2023-02-28T14:13:44.518Z,8.60
2023-02-28T14:16:14.253Z,8.10
2023-02-28T14:18:50.027Z,9.00
2023-02-28T14:21:25.903Z,8.20
2023-02-28T14:24:40.467Z,8.40
2023-02-28T14:27:22.538Z,7.70
2023-02-28T14:30:29.230Z,8.50
2023-02-28T14:33:13.271Z,8.40
2023-02-28T14:36:24.289Z,9.00
2023-02-28T14:38:55.712Z,7.80
2023-02-28T14:41:29.386Z,8.90
2023-02-28T14:44:00.123Z,8.90
2023-02-28T14:46:36.234Z,8.10
2023-02-28T14:49:06.495Z,9.00
2023-02-28T14:51:35.654Z,8.60
2023-02-28T14:54:04.650Z,9.20
2023-02-28T14:56:37.572Z,9.30
2023-02-28T14:59:25.667Z,9.50
2023-02-28T15:02:08.792Z,8.70
2023-02-28T15:04:37.853Z,9.20
2023-02-28T15:07:15.956Z,8.50
2023-02-28T15:09:43.949Z,8.50
2023-02-28T15:12:16.622Z,9.70
2023-02-28T15:14:45.705Z,9.60
2023-02-28T15:17:28.511Z,9.50
2023-02-28T15:19:57.955Z,14.20
2023-02-28T15:22:32.471Z,10.70
2023-02-28T15:25:03.131Z,10.10
2023-02-28T15:27:34.405Z,9.60
2023-02-28T15:30:08.430Z,9.40
2023-02-28T15:32:39.970Z,9.70
2023-02-28T15:35:28.198Z,9.70
2023-02-28T15:37:58.279Z,9.90
2023-02-28T15:40:32.162Z,11.20
2023-02-28T15:43:06.281Z,10.20
2023-02-28T15:45:38.824Z,10.50
2023-02-28T15:48:15.375Z,10.20
2023-02-28T15:50:43.889Z,9.70
2023-02-28T15:53:18.758Z,10.00
2023-02-28T15:55:56.342Z,10.10
2023-02-28T15:58:26.318Z,10.80
2023-02-28T16:01:06.655Z,11.30
2023-02-28T16:03:41.998Z,11.50
2023-02-28T16:06:22.538Z,10.40
2023-02-28T16:08:53.500Z,12.50
2023-02-28T16:11:22.978Z,11.80
2023-02-28T16:13:53.166Z,11.00
2023-02-28T16:16:27.013Z,12.10
2023-02-28T16:18:56.172Z,11.20
2023-02-28T16:21:28.270Z,11.30
2023-02-28T16:23:56.978Z,12.90
2023-02-28T16:26:27.997Z,12.20
2023-02-28T16:28:56.218Z,11.20
2023-02-28T16:31:25.132Z,11.00
2023-02-28T16:33:53.247Z,11.70
2023-02-28T16:36:25.693Z,12.00
2023-02-28T16:38:57.467Z,12.50
2023-02-28T16:41:29.645Z,12.40
2023-02-28T16:44:01.459Z,12.70
2023-02-28T16:46:35.849Z,13.30
2023-02-28T16:49:03.966Z,12.00
2023-02-28T16:51:34.318Z,12.70
2023-02-28T16:54:07.694Z,12.20
2023-02-28T16:56:36.679Z,13.50
2023-02-28T16:59:04.925Z,13.50
2023-02-28T17:01:33.748Z,15.40
2023-02-28T17:04:02.214Z,14.30
2023-02-28T17:06:31.487Z,14.40
2023-02-28T17:09:00.227Z,14.70
2023-02-28T17:11:28.625Z,14.20
2023-02-28T17:13:57.403Z,13.90
2023-02-28T17:16:29.209Z,14.80
2023-02-28T17:19:00.432Z,13.30
2023-02-28T17:21:29.567Z,14.20
2023-02-28T17:23:57.884Z,13.50
2023-02-28T17:26:28.508Z,14.20
2023-02-28T17:28:58.159Z,13.10
2023-02-28T17:31:27.804Z,12.70
2023-02-28T17:33:55.982Z,12.50
2023-02-28T17:36:28.608Z,13.20
2023-02-28T17:38:58.866Z,13.70
2023-02-28T17:41:27.292Z,13.50
2023-02-28T17:43:56.770Z,12.30
2023-02-28T17:46:26.795Z,13.10
2023-02-28T17:48:55.317Z,13.40
2023-02-28T17:51:25.079Z,13.50
2023-02-28T17:53:53.188Z,13.60
2023-02-28T17:56:24.076Z,14.80
2023-02-28T17:58:53.853Z,13.90
2023-02-28T18:01:24.728Z,14.20
2023-02-28T18:03:55.913Z,13.40
2023-02-28T18:06:27.866Z,14.00
2023-02-28T18:08:56.174Z,14.70
2023-02-28T18:11:26.361Z,14.50
2023-02-28T18:13:56.138Z,15.20
2023-02-28T18:16:24.205Z,15.00
2023-02-28T18:18:52.704Z,14.60
2023-02-28T18:21:21.056Z,15.90
2023-02-28T18:23:49.538Z,16.40
2023-02-28T18:26:19.309Z,16.00
2023-02-28T18:28:48.190Z,16.60
2023-02-28T18:31:24.368Z,16.70
2023-02-28T18:33:52.951Z,15.00
2023-02-28T18:36:22.025Z,15.60
2023-02-28T18:38:50.358Z,16.50
2023-02-28T18:41:20.089Z,15.80
2023-02-28T18:43:50.504Z,15.30
2023-02-28T18:46:20.897Z,14.90
2023-02-28T18:48:49.196Z,16.70
2023-02-28T18:51:19.626Z,15.30
2023-02-28T18:53:48.350Z,15.70
2023-02-28T18:56:18.457Z,16.40
2023-02-28T18:58:46.852Z,16.80
2023-02-28T19:01:17.487Z,15.30
2023-02-28T19:03:46.226Z,15.90
2023-02-28T19:06:15.317Z,17.80
2023-02-28T19:08:43.394Z,20.10
2023-02-28T19:11:14.974Z,22.10
2023-02-28T19:13:43.763Z,23.00
2023-02-28T19:16:13.261Z,21.10
2023-02-28T19:18:42.052Z,21.20
2023-02-28T19:21:11.718Z,22.20
2023-02-28T19:23:41.689Z,22.80
2023-02-28T19:26:11.563Z,22.20
2023-02-28T19:28:39.846Z,21.70
2023-02-28T19:31:13.860Z,21.20
2023-02-28T19:33:42.376Z,21.50
2023-02-28T19:36:12.294Z,21.00
2023-02-28T19:38:40.950Z,19.30
2023-02-28T19:41:33.572Z,20.70
2023-02-28T19:44:01.601Z,21.50
2023-02-28T19:46:29.676Z,19.20
2023-02-28T19:48:57.958Z,20.10
2023-02-28T19:51:27.191Z,20.80
2023-02-28T19:53:55.369Z,20.00
2023-02-28T19:56:24.060Z,22.30
2023-02-28T19:58:52.156Z,20.50
2023-02-28T20:01:20.730Z,18.90
2023-02-28T20:03:51.133Z,19.50
2023-02-28T20:06:19.263Z,29.70
2023-02-28T20:08:47.418Z,35.00
2023-02-28T20:11:16.707Z,26.00
2023-02-28T20:13:45.517Z,23.00
2023-02-28T20:16:15.240Z,20.90
2023-02-28T20:18:50.753Z,20.50
2023-02-28T20:23:49.071Z,18.50
2023-02-28T20:29:28.144Z,19.00
2023-02-28T20:32:01.844Z,19.50
2023-02-28T20:34:30.564Z,19.80
2023-02-28T20:36:59.135Z,19.70
2023-02-28T20:39:28.430Z,20.80
2023-02-28T20:41:57.077Z,19.70
2023-02-28T20:44:25.493Z,20.70
2023-02-28T20:46:54.039Z,21.90
2023-02-28T20:49:23.420Z,21.10
2023-02-28T20:51:51.862Z,21.90
2023-02-28T20:54:20.163Z,20.80
2023-02-28T20:56:48.342Z,21.10
2023-02-28T20:59:17.250Z,22.10
2023-02-28T21:01:45.640Z,20.80
2023-02-28T21:04:14.081Z,21.20
2023-02-28T21:06:45.774Z,22.10
2023-02-28T21:09:15.658Z,20.30
2023-02-28T21:11:44.109Z,21.40
2023-02-28T21:14:17.454Z,21.80
2023-02-28T21:16:46.300Z,20.80
2023-02-28T21:19:14.744Z,21.50
2023-02-28T21:21:44.337Z,22.00
2023-02-28T21:24:13.847Z,24.90
2023-02-28T21:26:44.302Z,22.60
2023-02-28T21:29:13.569Z,24.70
2023-02-28T21:31:41.809Z,24.50
2023-02-28T21:34:12.573Z,23.90
2023-02-28T21:36:45.076Z,25.70
2023-02-28T21:39:15.693Z,26.40
2023-02-28T21:41:43.982Z,26.00
2023-02-28T21:44:17.846Z,26.90
2023-02-28T21:47:08.414Z,24.30
2023-02-28T21:49:38.505Z,25.90
2023-02-28T21:52:06.971Z,25.60
2023-02-28T21:54:35.352Z,27.30
2023-02-28T21:57:03.708Z,27.60
2023-02-28T21:59:32.135Z,29.20
2023-02-28T22:02:00.633Z,28.10
2023-02-28T22:04:28.785Z,29.20
2023-02-28T22:06:57.965Z,27.70
2023-02-28T22:09:26.371Z,28.20
2023-02-28T22:11:54.687Z,26.60
2023-02-28T22:14:23.193Z,30.30
2023-02-28T22:16:54.163Z,28.10
2023-02-28T22:19:23.649Z,27.00
2023-02-28T22:21:53.468Z,27.40
2023-02-28T22:24:23.725Z,28.30
2023-02-28T22:26:52.331Z,29.30
2023-02-28T22:29:20.472Z,31.00
2023-02-28T22:31:48.494Z,30.10
2023-02-28T22:34:16.842Z,30.60
2023-02-28T22:36:44.920Z,29.80
2023-02-28T22:39:13.138Z,31.80
2023-02-28T22:41:41.237Z,30.80
2023-02-28T22:44:10.582Z,30.00
2023-02-28T22:46:38.853Z,33.40
2023-02-28T22:49:07.069Z,33.90
2023-02-28T22:51:36.049Z,34.00
2023-02-28T22:54:04.683Z,33.50
2023-02-28T22:56:35.688Z,32.20
2023-02-28T22:59:03.837Z,34.50
2023-02-28T23:01:33.122Z,34.40
2023-02-28T23:04:02.157Z,36.20
2023-02-28T23:06:33.365Z,38.10
2023-02-28T23:09:05.089Z,32.60
2023-02-28T23:11:36.014Z,34.00
2023-02-28T23:14:04.393Z,35.60
2023-02-28T23:16:35.436Z,32.80
2023-02-28T23:19:06.189Z,33.80
2023-02-28T23:21:34.951Z,33.10
2023-02-28T23:24:04.290Z,33.50
2023-02-28T23:26:33.117Z,32.30
2023-02-28T23:29:01.338Z,32.70
2023-02-28T23:31:29.418Z,30.60
2023-02-28T23:33:57.678Z,34.40
2023-02-28T23:36:26.028Z,35.70
2023-02-28T23:38:54.171Z,35.90
2023-02-28T23:41:23.585Z,34.60
2023-02-28T23:43:54.072Z,36.30
2023-02-28T23:46:22.539Z,34.40
2023-02-28T23:48:50.653Z,36.20
2023-02-28T23:51:21.222Z,35.20
2023-02-28T23:54:05.325Z,34.10
2023-02-28T23:56:41.377Z,35.50
2023-02-28T23:59:10.693Z,34.10
